Sturgeon Bay, WI

3:19 AM CDT on August 28, 2014 (GMT -0500)
Oconto Municipal | Change Station
CLOSE
Current Station
Airport
Location: Oconto,
Elevation: 604 ft
Nearby Weather Stations

Elev 604 ft 44.87 °N, 87.91 °W | Updated 24 minutes ago

Overcast
Overcast
58 °F
Feels Like 58 °F
N
4
Wind Variable Wind from SE

Today
High -- | Low -- °F
--% Chance of Precip.
Yesterday
High -- | Low -- °F
Precip. -- in
6:07 AM 7:33 PM
Waxing Crescent, 7% visible
Pressure 30.17 in
Visibility 10.0 miles
Clouds Overcast 2200 ft
Dew Point 58 °F
Humidity 99%
Rainfall 0.00 in
Snow Depth Not available.
UV 0 out of 12
Pollen 9.00 out of 12
Air Quality Not available.
Flu Activity Not available.
METAR KOCQ 280755Z AUTO 14003KT 10SM OVC022 15/14 A3017 RMK AO1 T01450143

More Conditions Fewer Conditions

Pressure 30.17 in
Visibility 10.0 miles
Clouds Overcast 2200 ft
Dew Point 58 °F
Humidity 99%
Rainfall 0.00 in
Snow Depth Not available.
UV 0 out of 12
Pollen 9.00 out of 12
Air Quality Not available.
Flu Activity Not available.
METAR KOCQ 280755Z AUTO 14003KT 10SM OVC022 15/14 A3017 RMK AO1 T01450143

More Conditions Fewer Conditions

10-Day Weather Forecast

Almanac

Astronomy

Aug. 28, 2014 Rise Set
Actual Time 6:07 AM CDT 7:33 PM CDT
Civil Twilight 5:36 AM CDT 8:04 PM CDT
Nautical Twilight 4:59 AM CDT 8:40 PM CDT
Astronomical Twilight 4:20 AM CDT 9:20 PM CDT
Moon 9:08 AM CDT 8:47 PM CDT
Length of Visible Light 14h 27m
Length of Day
13h 26m
Tomorrow will be 2m 58s shorter.
Waxing Crescent, 7% of the Moon is Illuminated
Today
Waxing Crescent
Sep 2
First Quarter
Sep 8
Full
Sep 15
Last Quarter
Sep 24
New

Today's Extremes

State Highs State Lows

Community

WunderPhotos

Upload Photos

1,747,918 photos uploaded!

Nearby

Snow Depth

Station Depth Elevation
No new snow has been reported.

Earthquake Activity

City Distance Mag. Time & Date
No recent earthquake activity has been reported nearby.
Minimum magnitude displayed is 2.5.

Coastal Water Temperatures

Place Temperature
Menominee, MI 73.0 °F

Nearby Weather Stations